sensor_id;sensor_type;location;lat;lon;timestamp;temperature;humidity
51855;DHT22;37895;53.240;6.572;2024-01-06T00:02:24;1.60;99.90
51855;DHT22;37895;53.240;6.572;2024-01-06T00:04:49;1.60;99.90
51855;DHT22;37895;53.240;6.572;2024-01-06T00:07:15;1.60;99.90
51855;DHT22;37895;53.240;6.572;2024-01-06T00:09:41;1.70;99.90
51855;DHT22;37895;53.240;6.572;2024-01-06T00:12:06;1.60;99.90
51855;DHT22;37895;53.240;6.572;2024-01-06T00:14:32;1.40;99.90
51855;DHT22;37895;53.240;6.572;2024-01-06T00:16:58;1.40;99.90
51855;DHT22;37895;53.240;6.572;2024-01-06T00:19:23;1.50;99.90
51855;DHT22;37895;53.240;6.572;2024-01-06T00:21:49;1.50;99.90
51855;DHT22;37895;53.240;6.572;2024-01-06T00:24:14;1.70;99.90
51855;DHT22;37895;53.240;6.572;2024-01-06T00:26:40;1.50;99.90
51855;DHT22;37895;53.240;6.572;2024-01-06T00:29:06;1.50;99.90
51855;DHT22;37895;53.240;6.572;2024-01-06T00:31:31;1.50;99.90
51855;DHT22;37895;53.240;6.572;2024-01-06T00:33:57;2.30;99.90
51855;DHT22;37895;53.240;6.572;2024-01-06T00:36:22;1.50;99.90
51855;DHT22;37895;53.240;6.572;2024-01-06T00:38:48;1.40;99.90
51855;DHT22;37895;53.240;6.572;2024-01-06T00:41:14;1.30;99.90
51855;DHT22;37895;53.240;6.572;2024-01-06T00:43:39;1.30;99.90
51855;DHT22;37895;53.240;6.572;2024-01-06T00:46:05;1.30;99.90
51855;DHT22;37895;53.240;6.572;2024-01-06T00:48:31;1.50;99.90
51855;DHT22;37895;53.240;6.572;2024-01-06T00:50:56;1.30;99.90
51855;DHT22;37895;53.240;6.572;2024-01-06T00:53:22;1.20;99.90
51855;DHT22;37895;53.240;6.572;2024-01-06T00:55:48;1.30;99.90
51855;DHT22;37895;53.240;6.572;2024-01-06T00:58:13;2.10;99.90
51855;DHT22;37895;53.240;6.572;2024-01-06T01:00:39;1.30;99.90
51855;DHT22;37895;53.240;6.572;2024-01-06T01:03:05;1.30;99.90
51855;DHT22;37895;53.240;6.572;2024-01-06T01:05:30;1.30;99.90
51855;DHT22;37895;53.240;6.572;2024-01-06T01:07:56;2.20;99.90
51855;DHT22;37895;53.240;6.572;2024-01-06T01:10:22;1.40;99.90
51855;DHT22;37895;53.240;6.572;2024-01-06T01:12:47;1.30;99.90
51855;DHT22;37895;53.240;6.572;2024-01-06T01:15:13;1.40;99.90
51855;DHT22;37895;53.240;6.572;2024-01-06T01:17:38;2.10;99.90
51855;DHT22;37895;53.240;6.572;2024-01-06T01:20:04;1.40;99.90
51855;DHT22;37895;53.240;6.572;2024-01-06T01:22:30;1.40;99.90
51855;DHT22;37895;53.240;6.572;2024-01-06T01:24:56;1.40;99.90
51855;DHT22;37895;53.240;6.572;2024-01-06T01:27:21;1.40;99.90
51855;DHT22;37895;53.240;6.572;2024-01-06T01:29:47;1.40;99.90
51855;DHT22;37895;53.240;6.572;2024-01-06T01:32:15;1.40;99.90
51855;DHT22;37895;53.240;6.572;2024-01-06T01:34:41;1.40;99.90
51855;DHT22;37895;53.240;6.572;2024-01-06T01:37:06;2.30;99.90
51855;DHT22;37895;53.240;6.572;2024-01-06T01:39:32;1.70;99.90
51855;DHT22;37895;53.240;6.572;2024-01-06T01:41:57;1.60;99.90
51855;DHT22;37895;53.240;6.572;2024-01-06T01:44:23;1.40;99.90
51855;DHT22;37895;53.240;6.572;2024-01-06T01:46:49;1.30;99.90
51855;DHT22;37895;53.240;6.572;2024-01-06T01:49:15;1.60;99.90
51855;DHT22;37895;53.240;6.572;2024-01-06T01:51:40;1.30;99.90
51855;DHT22;37895;53.240;6.572;2024-01-06T01:54:08;1.30;99.90
51855;DHT22;37895;53.240;6.572;2024-01-06T01:56:34;1.30;99.90
51855;DHT22;37895;53.240;6.572;2024-01-06T01:59:03;1.30;99.90
51855;DHT22;37895;53.240;6.572;2024-01-06T02:01:30;2.10;99.90
51855;DHT22;37895;53.240;6.572;2024-01-06T02:03:57;1.10;99.90
51855;DHT22;37895;53.240;6.572;2024-01-06T02:06:23;1.20;99.90
51855;DHT22;37895;53.240;6.572;2024-01-06T02:08:49;1.10;99.90
51855;DHT22;37895;53.240;6.572;2024-01-06T02:11:14;1.20;99.90
51855;DHT22;37895;53.240;6.572;2024-01-06T02:13:40;1.10;99.90
51855;DHT22;37895;53.240;6.572;2024-01-06T02:16:06;1.10;99.90
51855;DHT22;37895;53.240;6.572;2024-01-06T02:18:32;1.10;99.90
51855;DHT22;37895;53.240;6.572;2024-01-06T02:20:59;2.20;99.90
51855;DHT22;37895;53.240;6.572;2024-01-06T02:23:26;1.10;99.90
51855;DHT22;37895;53.240;6.572;2024-01-06T02:25:51;1.10;99.90
51855;DHT22;37895;53.240;6.572;2024-01-06T02:28:17;1.00;99.90
51855;DHT22;37895;53.240;6.572;2024-01-06T02:30:43;1.00;99.90
51855;DHT22;37895;53.240;6.572;2024-01-06T02:33:09;1.10;99.90
51855;DHT22;37895;53.240;6.572;2024-01-06T02:35:35;1.10;99.90
51855;DHT22;37895;53.240;6.572;2024-01-06T02:38:00;1.10;99.90
51855;DHT22;37895;53.240;6.572;2024-01-06T02:40:26;1.10;99.90
51855;DHT22;37895;53.240;6.572;2024-01-06T02:42:52;1.10;99.90
51855;DHT22;37895;53.240;6.572;2024-01-06T02:45:17;1.10;99.90
51855;DHT22;37895;53.240;6.572;2024-01-06T02:47:43;1.10;99.90
51855;DHT22;37895;53.240;6.572;2024-01-06T02:50:09;1.30;99.90
51855;DHT22;37895;53.240;6.572;2024-01-06T02:52:34;1.10;99.90
51855;DHT22;37895;53.240;6.572;2024-01-06T02:55:00;1.30;99.90
51855;DHT22;37895;53.240;6.572;2024-01-06T02:57:27;1.10;99.90
51855;DHT22;37895;53.240;6.572;2024-01-06T02:59:53;1.10;99.90
51855;DHT22;37895;53.240;6.572;2024-01-06T03:02:18;1.20;99.90
51855;DHT22;37895;53.240;6.572;2024-01-06T03:04:44;1.50;99.90
51855;DHT22;37895;53.240;6.572;2024-01-06T03:07:09;1.20;99.90
51855;DHT22;37895;53.240;6.572;2024-01-06T03:09:35;1.20;99.90
51855;DHT22;37895;53.240;6.572;2024-01-06T03:12:01;1.20;99.90
51855;DHT22;37895;53.240;6.572;2024-01-06T03:14:27;1.20;99.90
51855;DHT22;37895;53.240;6.572;2024-01-06T03:16:53;1.20;99.90
51855;DHT22;37895;53.240;6.572;2024-01-06T03:19:19;2.20;99.90
51855;DHT22;37895;53.240;6.572;2024-01-06T03:21:44;1.20;99.90
51855;DHT22;37895;53.240;6.572;2024-01-06T03:24:10;2.30;99.90
51855;DHT22;37895;53.240;6.572;2024-01-06T03:26:35;1.20;99.90
51855;DHT22;37895;53.240;6.572;2024-01-06T03:29:01;1.40;99.90
51855;DHT22;37895;53.240;6.572;2024-01-06T03:31:29;1.20;99.90
51855;DHT22;37895;53.240;6.572;2024-01-06T03:33:54;1.20;99.90
51855;DHT22;37895;53.240;6.572;2024-01-06T03:36:21;1.20;99.90
51855;DHT22;37895;53.240;6.572;2024-01-06T03:38:47;1.80;99.90
51855;DHT22;37895;53.240;6.572;2024-01-06T03:41:12;1.50;99.90
51855;DHT22;37895;53.240;6.572;2024-01-06T03:43:38;1.20;99.90
51855;DHT22;37895;53.240;6.572;2024-01-06T03:46:05;1.40;99.90
51855;DHT22;37895;53.240;6.572;2024-01-06T03:48:30;1.20;99.90
51855;DHT22;37895;53.240;6.572;2024-01-06T03:50:58;1.10;99.90
51855;DHT22;37895;53.240;6.572;2024-01-06T03:53:24;1.10;99.90
51855;DHT22;37895;53.240;6.572;2024-01-06T03:55:50;1.10;99.90
51855;DHT22;37895;53.240;6.572;2024-01-06T03:58:15;2.00;99.90
51855;DHT22;37895;53.240;6.572;2024-01-06T04:00:41;1.20;99.90
51855;DHT22;37895;53.240;6.572;2024-01-06T04:03:07;1.70;99.90
51855;DHT22;37895;53.240;6.572;2024-01-06T04:05:33;1.20;99.90
51855;DHT22;37895;53.240;6.572;2024-01-06T04:07:59;1.40;99.90
51855;DHT22;37895;53.240;6.572;2024-01-06T04:10:24;1.20;99.90
51855;DHT22;37895;53.240;6.572;2024-01-06T04:12:50;1.20;99.90
51855;DHT22;37895;53.240;6.572;2024-01-06T04:15:15;1.20;99.90
51855;DHT22;37895;53.240;6.572;2024-01-06T04:17:41;1.20;99.90
51855;DHT22;37895;53.240;6.572;2024-01-06T04:20:07;1.10;99.90
51855;DHT22;37895;53.240;6.572;2024-01-06T04:22:33;1.10;99.90
51855;DHT22;37895;53.240;6.572;2024-01-06T04:24:59;1.10;99.90
51855;DHT22;37895;53.240;6.572;2024-01-06T04:27:24;1.20;99.90
51855;DHT22;37895;53.240;6.572;2024-01-06T04:29:50;1.10;99.90
51855;DHT22;37895;53.240;6.572;2024-01-06T04:32:18;1.20;99.90
51855;DHT22;37895;53.240;6.572;2024-01-06T04:34:44;1.10;99.90
51855;DHT22;37895;53.240;6.572;2024-01-06T04:37:09;1.10;99.90
51855;DHT22;37895;53.240;6.572;2024-01-06T04:39:35;1.20;99.90
51855;DHT22;37895;53.240;6.572;2024-01-06T04:42:01;1.20;99.90
51855;DHT22;37895;53.240;6.572;2024-01-06T04:44:26;1.20;99.90
51855;DHT22;37895;53.240;6.572;2024-01-06T04:46:52;1.30;99.90
51855;DHT22;37895;53.240;6.572;2024-01-06T04:49:17;1.20;99.90
51855;DHT22;37895;53.240;6.572;2024-01-06T04:51:43;1.70;99.90
51855;DHT22;37895;53.240;6.572;2024-01-06T04:54:08;1.40;99.90
51855;DHT22;37895;53.240;6.572;2024-01-06T04:56:34;1.20;99.90
51855;DHT22;37895;53.240;6.572;2024-01-06T04:59:00;1.20;99.90
51855;DHT22;37895;53.240;6.572;2024-01-06T05:01:25;1.20;99.90
51855;DHT22;37895;53.240;6.572;2024-01-06T05:03:51;1.20;99.90
51855;DHT22;37895;53.240;6.572;2024-01-06T05:06:17;2.10;99.90
51855;DHT22;37895;53.240;6.572;2024-01-06T05:08:42;1.20;99.90
51855;DHT22;37895;53.240;6.572;2024-01-06T05:11:10;1.10;99.90
51855;DHT22;37895;53.240;6.572;2024-01-06T05:13:36;1.00;99.90
51855;DHT22;37895;53.240;6.572;2024-01-06T05:16:02;1.10;99.90
51855;DHT22;37895;53.240;6.572;2024-01-06T05:18:28;1.10;99.90
51855;DHT22;37895;53.240;6.572;2024-01-06T05:20:54;1.00;99.90
51855;DHT22;37895;53.240;6.572;2024-01-06T05:23:20;1.10;99.90
51855;DHT22;37895;53.240;6.572;2024-01-06T05:25:45;1.00;99.90
51855;DHT22;37895;53.240;6.572;2024-01-06T05:28:11;2.10;99.90
51855;DHT22;37895;53.240;6.572;2024-01-06T05:30:36;1.00;99.90
51855;DHT22;37895;53.240;6.572;2024-01-06T05:33:02;1.00;99.90
51855;DHT22;37895;53.240;6.572;2024-01-06T05:35:29;1.00;99.90
51855;DHT22;37895;53.240;6.572;2024-01-06T05:37:54;1.00;99.90
51855;DHT22;37895;53.240;6.572;2024-01-06T05:40:20;1.00;99.90
51855;DHT22;37895;53.240;6.572;2024-01-06T05:42:46;1.00;99.90
51855;DHT22;37895;53.240;6.572;2024-01-06T05:45:12;1.00;99.90
51855;DHT22;37895;53.240;6.572;2024-01-06T05:47:40;1.00;99.90
51855;DHT22;37895;53.240;6.572;2024-01-06T05:50:06;1.00;99.90
51855;DHT22;37895;53.240;6.572;2024-01-06T05:52:35;1.00;99.90
51855;DHT22;37895;53.240;6.572;2024-01-06T05:55:01;1.10;99.90
51855;DHT22;37895;53.240;6.572;2024-01-06T05:57:26;1.10;99.90
51855;DHT22;37895;53.240;6.572;2024-01-06T05:59:52;1.10;99.90
51855;DHT22;37895;53.240;6.572;2024-01-06T06:02:17;1.20;99.90
51855;DHT22;37895;53.240;6.572;2024-01-06T06:04:43;1.20;99.90
51855;DHT22;37895;53.240;6.572;2024-01-06T06:07:09;1.20;99.90
51855;DHT22;37895;53.240;6.572;2024-01-06T06:09:34;1.20;99.90
51855;DHT22;37895;53.240;6.572;2024-01-06T06:12:00;1.40;99.90
51855;DHT22;37895;53.240;6.572;2024-01-06T06:14:26;1.20;99.90
51855;DHT22;37895;53.240;6.572;2024-01-06T06:16:51;1.20;99.90
51855;DHT22;37895;53.240;6.572;2024-01-06T06:19:17;1.30;99.90
51855;DHT22;37895;53.240;6.572;2024-01-06T06:21:44;1.30;99.90
51855;DHT22;37895;53.240;6.572;2024-01-06T06:24:09;1.30;99.90
51855;DHT22;37895;53.240;6.572;2024-01-06T06:26:35;1.70;99.90
51855;DHT22;37895;53.240;6.572;2024-01-06T06:29:00;1.20;99.90
51855;DHT22;37895;53.240;6.572;2024-01-06T06:31:26;1.30;99.90
51855;DHT22;37895;53.240;6.572;2024-01-06T06:33:52;1.20;99.90
51855;DHT22;37895;53.240;6.572;2024-01-06T06:36:17;1.20;99.90
51855;DHT22;37895;53.240;6.572;2024-01-06T06:38:43;1.20;99.90
51855;DHT22;37895;53.240;6.572;2024-01-06T06:41:09;1.20;99.90
51855;DHT22;37895;53.240;6.572;2024-01-06T06:43:34;1.30;99.90
51855;DHT22;37895;53.240;6.572;2024-01-06T06:46:00;1.70;99.90
51855;DHT22;37895;53.240;6.572;2024-01-06T06:48:25;1.20;99.90
51855;DHT22;37895;53.240;6.572;2024-01-06T06:50:51;1.20;99.90
51855;DHT22;37895;53.240;6.572;2024-01-06T06:53:17;1.20;99.90
51855;DHT22;37895;53.240;6.572;2024-01-06T06:55:43;1.20;99.90
51855;DHT22;37895;53.240;6.572;2024-01-06T06:58:09;1.20;99.90
51855;DHT22;37895;53.240;6.572;2024-01-06T07:00:34;1.20;99.90
51855;DHT22;37895;53.240;6.572;2024-01-06T07:03:00;1.20;99.90
51855;DHT22;37895;53.240;6.572;2024-01-06T07:05:26;1.10;99.90
51855;DHT22;37895;53.240;6.572;2024-01-06T07:07:52;1.30;99.90
51855;DHT22;37895;53.240;6.572;2024-01-06T07:10:17;1.10;99.90
51855;DHT22;37895;53.240;6.572;2024-01-06T07:12:43;1.20;99.90
51855;DHT22;37895;53.240;6.572;2024-01-06T07:15:09;1.40;99.90
51855;DHT22;37895;53.240;6.572;2024-01-06T07:17:37;1.10;99.90
51855;DHT22;37895;53.240;6.572;2024-01-06T07:20:05;1.10;99.90
51855;DHT22;37895;53.240;6.572;2024-01-06T07:22:32;1.10;99.90
51855;DHT22;37895;53.240;6.572;2024-01-06T07:25:00;1.10;99.90
51855;DHT22;37895;53.240;6.572;2024-01-06T07:27:26;1.10;99.90
51855;DHT22;37895;53.240;6.572;2024-01-06T07:29:52;1.10;99.90
51855;DHT22;37895;53.240;6.572;2024-01-06T07:32:17;1.10;99.90
51855;DHT22;37895;53.240;6.572;2024-01-06T07:34:43;1.10;99.90
51855;DHT22;37895;53.240;6.572;2024-01-06T07:37:09;1.10;99.90
51855;DHT22;37895;53.240;6.572;2024-01-06T07:39:34;1.10;99.90
51855;DHT22;37895;53.240;6.572;2024-01-06T07:42:00;1.10;99.90
51855;DHT22;37895;53.240;6.572;2024-01-06T07:44:25;1.40;99.90
51855;DHT22;37895;53.240;6.572;2024-01-06T07:46:52;1.10;99.90
51855;DHT22;37895;53.240;6.572;2024-01-06T07:49:18;1.10;99.90
51855;DHT22;37895;53.240;6.572;2024-01-06T07:51:44;1.10;99.90
51855;DHT22;37895;53.240;6.572;2024-01-06T07:54:09;1.20;99.90
51855;DHT22;37895;53.240;6.572;2024-01-06T07:56:37;1.20;99.90
51855;DHT22;37895;53.240;6.572;2024-01-06T07:59:03;1.20;99.90
51855;DHT22;37895;53.240;6.572;2024-01-06T08:01:30;1.20;99.90
51855;DHT22;37895;53.240;6.572;2024-01-06T08:03:55;1.30;99.90
51855;DHT22;37895;53.240;6.572;2024-01-06T08:06:21;1.30;99.90
51855;DHT22;37895;53.240;6.572;2024-01-06T08:08:47;1.30;99.90
51855;DHT22;37895;53.240;6.572;2024-01-06T08:11:12;1.30;99.90
51855;DHT22;37895;53.240;6.572;2024-01-06T08:13:38;1.50;99.90
51855;DHT22;37895;53.240;6.572;2024-01-06T08:16:04;1.30;99.90
51855;DHT22;37895;53.240;6.572;2024-01-06T08:18:29;1.40;99.90
51855;DHT22;37895;53.240;6.572;2024-01-06T08:20:55;1.40;99.90
51855;DHT22;37895;53.240;6.572;2024-01-06T08:23:21;1.40;99.90
51855;DHT22;37895;53.240;6.572;2024-01-06T08:25:47;1.80;99.90
51855;DHT22;37895;53.240;6.572;2024-01-06T08:28:13;1.40;99.90
51855;DHT22;37895;53.240;6.572;2024-01-06T08:30:40;1.40;99.90
51855;DHT22;37895;53.240;6.572;2024-01-06T08:33:06;1.40;99.90
51855;DHT22;37895;53.240;6.572;2024-01-06T08:35:31;1.40;99.90
51855;DHT22;37895;53.240;6.572;2024-01-06T08:37:57;1.50;99.90
51855;DHT22;37895;53.240;6.572;2024-01-06T08:40:23;1.50;99.90
51855;DHT22;37895;53.240;6.572;2024-01-06T08:42:49;1.50;99.90
51855;DHT22;37895;53.240;6.572;2024-01-06T08:45:14;1.50;99.90
51855;DHT22;37895;53.240;6.572;2024-01-06T08:47:40;1.50;99.90
51855;DHT22;37895;53.240;6.572;2024-01-06T08:50:07;1.50;99.90
51855;DHT22;37895;53.240;6.572;2024-01-06T08:52:32;1.60;99.90
51855;DHT22;37895;53.240;6.572;2024-01-06T08:54:58;1.40;99.90
51855;DHT22;37895;53.240;6.572;2024-01-06T08:57:24;1.60;99.90
51855;DHT22;37895;53.240;6.572;2024-01-06T08:59:49;1.50;99.90
51855;DHT22;37895;53.240;6.572;2024-01-06T09:02:15;1.50;99.90
51855;DHT22;37895;53.240;6.572;2024-01-06T09:04:40;1.50;99.90
51855;DHT22;37895;53.240;6.572;2024-01-06T09:07:06;1.50;99.90
51855;DHT22;37895;53.240;6.572;2024-01-06T09:09:31;1.90;99.90
51855;DHT22;37895;53.240;6.572;2024-01-06T09:11:57;1.90;99.90
51855;DHT22;37895;53.240;6.572;2024-01-06T09:14:23;1.60;99.90
51855;DHT22;37895;53.240;6.572;2024-01-06T09:16:48;1.70;99.90
51855;DHT22;37895;53.240;6.572;2024-01-06T09:19:14;2.00;99.90
51855;DHT22;37895;53.240;6.572;2024-01-06T09:21:39;2.50;99.90
51855;DHT22;37895;53.240;6.572;2024-01-06T09:24:05;2.30;99.90
51855;DHT22;37895;53.240;6.572;2024-01-06T09:26:32;1.70;99.90
51855;DHT22;37895;53.240;6.572;2024-01-06T09:28:57;2.20;99.90
51855;DHT22;37895;53.240;6.572;2024-01-06T09:31:23;1.60;99.90
51855;DHT22;37895;53.240;6.572;2024-01-06T09:33:49;1.60;99.90
51855;DHT22;37895;53.240;6.572;2024-01-06T09:36:15;1.60;99.90
51855;DHT22;37895;53.240;6.572;2024-01-06T09:38:40;1.60;99.90
51855;DHT22;37895;53.240;6.572;2024-01-06T09:41:06;1.60;99.90
51855;DHT22;37895;53.240;6.572;2024-01-06T09:43:32;2.10;99.90
51855;DHT22;37895;53.240;6.572;2024-01-06T09:46:05;1.70;99.90
51855;DHT22;37895;53.240;6.572;2024-01-06T09:48:34;1.70;99.90
51855;DHT22;37895;53.240;6.572;2024-01-06T09:51:02;1.70;99.90
51855;DHT22;37895;53.240;6.572;2024-01-06T09:53:34;1.70;99.90
51855;DHT22;37895;53.240;6.572;2024-01-06T09:56:02;1.70;99.90
51855;DHT22;37895;53.240;6.572;2024-01-06T09:58:28;1.70;99.90
51855;DHT22;37895;53.240;6.572;2024-01-06T10:00:59;1.60;99.90
51855;DHT22;37895;53.240;6.572;2024-01-06T10:03:25;1.60;99.90
51855;DHT22;37895;53.240;6.572;2024-01-06T10:05:52;1.70;99.90
51855;DHT22;37895;53.240;6.572;2024-01-06T10:08:18;1.70;99.90
51855;DHT22;37895;53.240;6.572;2024-01-06T10:10:44;1.70;99.90
51855;DHT22;37895;53.240;6.572;2024-01-06T10:13:10;1.70;99.90
51855;DHT22;37895;53.240;6.572;2024-01-06T10:15:35;1.80;99.90
51855;DHT22;37895;53.240;6.572;2024-01-06T10:18:02;1.90;99.90
51855;DHT22;37895;53.240;6.572;2024-01-06T10:20:29;1.90;99.90
51855;DHT22;37895;53.240;6.572;2024-01-06T10:22:54;2.20;99.90
51855;DHT22;37895;53.240;6.572;2024-01-06T10:25:23;1.90;99.90
51855;DHT22;37895;53.240;6.572;2024-01-06T10:27:49;2.00;99.90
51855;DHT22;37895;53.240;6.572;2024-01-06T10:30:15;2.00;99.90
51855;DHT22;37895;53.240;6.572;2024-01-06T10:32:43;2.00;99.90
51855;DHT22;37895;53.240;6.572;2024-01-06T10:35:09;1.90;99.90
51855;DHT22;37895;53.240;6.572;2024-01-06T10:37:35;2.80;99.90
51855;DHT22;37895;53.240;6.572;2024-01-06T10:40:11;2.00;99.90
51855;DHT22;37895;53.240;6.572;2024-01-06T10:42:37;2.00;99.90
51855;DHT22;37895;53.240;6.572;2024-01-06T10:45:06;2.00;99.90
51855;DHT22;37895;53.240;6.572;2024-01-06T10:47:35;2.00;99.90
51855;DHT22;37895;53.240;6.572;2024-01-06T10:50:01;2.00;99.90
51855;DHT22;37895;53.240;6.572;2024-01-06T10:52:28;2.00;99.90
51855;DHT22;37895;53.240;6.572;2024-01-06T10:54:57;2.70;99.90
51855;DHT22;37895;53.240;6.572;2024-01-06T10:57:23;2.10;99.90
51855;DHT22;37895;53.240;6.572;2024-01-06T10:59:51;2.10;99.90
51855;DHT22;37895;53.240;6.572;2024-01-06T11:02:17;2.10;99.90
51855;DHT22;37895;53.240;6.572;2024-01-06T11:04:45;2.10;99.90
51855;DHT22;37895;53.240;6.572;2024-01-06T11:07:15;2.40;99.90
51855;DHT22;37895;53.240;6.572;2024-01-06T11:09:50;2.20;99.90
51855;DHT22;37895;53.240;6.572;2024-01-06T11:12:17;2.20;99.90
51855;DHT22;37895;53.240;6.572;2024-01-06T11:14:43;2.20;99.90
51855;DHT22;37895;53.240;6.572;2024-01-06T11:17:11;2.20;99.90
51855;DHT22;37895;53.240;6.572;2024-01-06T11:22:28;2.20;99.90
51855;DHT22;37895;53.240;6.572;2024-01-06T11:25:04;2.20;99.90
51855;DHT22;37895;53.240;6.572;2024-01-06T11:27:31;2.20;99.90
51855;DHT22;37895;53.240;6.572;2024-01-06T11:30:01;2.30;99.90
51855;DHT22;37895;53.240;6.572;2024-01-06T11:32:32;2.30;99.90
51855;DHT22;37895;53.240;6.572;2024-01-06T11:35:16;2.80;99.90
51855;DHT22;37895;53.240;6.572;2024-01-06T11:40:10;2.30;99.90
51855;DHT22;37895;53.240;6.572;2024-01-06T11:42:45;2.30;99.90
51855;DHT22;37895;53.240;6.572;2024-01-06T11:45:12;2.30;99.90
51855;DHT22;37895;53.240;6.572;2024-01-06T11:47:39;2.20;99.90
51855;DHT22;37895;53.240;6.572;2024-01-06T11:50:05;2.30;99.90
51855;DHT22;37895;53.240;6.572;2024-01-06T11:52:34;2.20;99.90
51855;DHT22;37895;53.240;6.572;2024-01-06T11:55:00;2.20;99.90
51855;DHT22;37895;53.240;6.572;2024-01-06T11:57:27;2.20;99.90
51855;DHT22;37895;53.240;6.572;2024-01-06T11:59:53;2.20;99.90
51855;DHT22;37895;53.240;6.572;2024-01-06T12:02:20;2.30;99.90
51855;DHT22;37895;53.240;6.572;2024-01-06T12:04:49;1.90;99.90
51855;DHT22;37895;53.240;6.572;2024-01-06T12:07:15;2.00;99.90
51855;DHT22;37895;53.240;6.572;2024-01-06T12:09:41;2.50;99.90
51855;DHT22;37895;53.240;6.572;2024-01-06T12:12:07;3.20;99.90
51855;DHT22;37895;53.240;6.572;2024-01-06T12:14:33;1.90;99.90
51855;DHT22;37895;53.240;6.572;2024-01-06T12:16:59;1.80;99.90
51855;DHT22;37895;53.240;6.572;2024-01-06T12:19:32;1.70;99.90
51855;DHT22;37895;53.240;6.572;2024-01-06T12:21:58;1.70;99.90
51855;DHT22;37895;53.240;6.572;2024-01-06T12:24:27;1.80;99.90
51855;DHT22;37895;53.240;6.572;2024-01-06T12:26:54;1.70;99.90
51855;DHT22;37895;53.240;6.572;2024-01-06T12:29:20;1.80;99.90
51855;DHT22;37895;53.240;6.572;2024-01-06T12:31:46;1.70;99.90
51855;DHT22;37895;53.240;6.572;2024-01-06T12:34:12;1.70;99.90
51855;DHT22;37895;53.240;6.572;2024-01-06T12:36:39;1.70;99.90
51855;DHT22;37895;53.240;6.572;2024-01-06T12:39:10;1.70;99.90
51855;DHT22;37895;53.240;6.572;2024-01-06T12:41:37;1.70;99.90
51855;DHT22;37895;53.240;6.572;2024-01-06T12:44:03;2.00;99.90
51855;DHT22;37895;53.240;6.572;2024-01-06T12:46:29;1.50;99.90
51855;DHT22;37895;53.240;6.572;2024-01-06T12:48:55;1.50;99.90
51855;DHT22;37895;53.240;6.572;2024-01-06T12:51:21;1.50;99.90
51855;DHT22;37895;53.240;6.572;2024-01-06T12:53:46;1.50;99.90
51855;DHT22;37895;53.240;6.572;2024-01-06T12:56:12;1.50;99.90
51855;DHT22;37895;53.240;6.572;2024-01-06T12:58:40;1.40;99.90
51855;DHT22;37895;53.240;6.572;2024-01-06T13:01:06;1.40;99.90
51855;DHT22;37895;53.240;6.572;2024-01-06T13:03:32;2.20;99.90
51855;DHT22;37895;53.240;6.572;2024-01-06T13:05:59;1.40;99.90
51855;DHT22;37895;53.240;6.572;2024-01-06T13:08:24;1.40;99.90
51855;DHT22;37895;53.240;6.572;2024-01-06T13:10:50;1.40;99.90
51855;DHT22;37895;53.240;6.572;2024-01-06T13:13:16;1.40;99.90
51855;DHT22;37895;53.240;6.572;2024-01-06T13:15:42;2.10;99.90
51855;DHT22;37895;53.240;6.572;2024-01-06T13:18:07;1.40;99.90
51855;DHT22;37895;53.240;6.572;2024-01-06T13:20:33;1.30;99.90
51855;DHT22;37895;53.240;6.572;2024-01-06T13:22:58;1.50;99.90
51855;DHT22;37895;53.240;6.572;2024-01-06T13:25:24;1.40;99.90
51855;DHT22;37895;53.240;6.572;2024-01-06T13:27:49;1.40;99.90
51855;DHT22;37895;53.240;6.572;2024-01-06T13:30:16;1.40;99.90
51855;DHT22;37895;53.240;6.572;2024-01-06T13:32:41;1.40;99.90
51855;DHT22;37895;53.240;6.572;2024-01-06T13:35:07;1.40;99.90
51855;DHT22;37895;53.240;6.572;2024-01-06T13:37:36;1.40;99.90
51855;DHT22;37895;53.240;6.572;2024-01-06T13:40:01;1.50;99.90
51855;DHT22;37895;53.240;6.572;2024-01-06T13:42:27;1.40;99.90
51855;DHT22;37895;53.240;6.572;2024-01-06T13:44:52;1.40;99.90
51855;DHT22;37895;53.240;6.572;2024-01-06T13:47:18;1.40;99.90
51855;DHT22;37895;53.240;6.572;2024-01-06T13:49:44;1.50;99.90
51855;DHT22;37895;53.240;6.572;2024-01-06T13:52:10;1.50;99.90
51855;DHT22;37895;53.240;6.572;2024-01-06T13:54:35;1.40;99.90
51855;DHT22;37895;53.240;6.572;2024-01-06T13:57:01;1.80;99.90
51855;DHT22;37895;53.240;6.572;2024-01-06T13:59:27;1.40;99.90
51855;DHT22;37895;53.240;6.572;2024-01-06T14:01:53;1.50;99.90
51855;DHT22;37895;53.240;6.572;2024-01-06T14:04:19;2.30;99.90
51855;DHT22;37895;53.240;6.572;2024-01-06T14:06:45;1.40;99.90
51855;DHT22;37895;53.240;6.572;2024-01-06T14:09:13;2.30;99.90
51855;DHT22;37895;53.240;6.572;2024-01-06T14:11:39;1.60;99.90
51855;DHT22;37895;53.240;6.572;2024-01-06T14:14:04;1.50;99.90
51855;DHT22;37895;53.240;6.572;2024-01-06T14:16:30;1.50;99.90
51855;DHT22;37895;53.240;6.572;2024-01-06T14:18:56;1.40;99.90
51855;DHT22;37895;53.240;6.572;2024-01-06T14:21:22;1.40;99.90
51855;DHT22;37895;53.240;6.572;2024-01-06T14:23:48;1.40;99.90
51855;DHT22;37895;53.240;6.572;2024-01-06T14:26:15;1.60;99.90
51855;DHT22;37895;53.240;6.572;2024-01-06T14:28:42;1.50;99.90
51855;DHT22;37895;53.240;6.572;2024-01-06T14:31:08;1.50;99.90
51855;DHT22;37895;53.240;6.572;2024-01-06T14:33:35;2.00;99.90
51855;DHT22;37895;53.240;6.572;2024-01-06T14:36:01;1.50;99.90
51855;DHT22;37895;53.240;6.572;2024-01-06T14:38:27;1.40;99.90
51855;DHT22;37895;53.240;6.572;2024-01-06T14:40:53;1.40;99.90
51855;DHT22;37895;53.240;6.572;2024-01-06T14:43:18;1.50;99.90
51855;DHT22;37895;53.240;6.572;2024-01-06T14:45:44;1.50;99.90
51855;DHT22;37895;53.240;6.572;2024-01-06T14:48:10;1.50;99.90
51855;DHT22;37895;53.240;6.572;2024-01-06T14:50:36;1.40;99.90
51855;DHT22;37895;53.240;6.572;2024-01-06T14:53:01;1.40;99.90
51855;DHT22;37895;53.240;6.572;2024-01-06T14:55:27;1.90;99.90
51855;DHT22;37895;53.240;6.572;2024-01-06T14:57:52;1.30;99.90
51855;DHT22;37895;53.240;6.572;2024-01-06T15:00:18;1.30;99.90
51855;DHT22;37895;53.240;6.572;2024-01-06T15:02:44;1.30;99.90
51855;DHT22;37895;53.240;6.572;2024-01-06T15:05:11;2.20;99.90
51855;DHT22;37895;53.240;6.572;2024-01-06T15:07:37;1.40;99.90
51855;DHT22;37895;53.240;6.572;2024-01-06T15:10:03;1.40;99.90
51855;DHT22;37895;53.240;6.572;2024-01-06T15:12:29;1.30;99.90
51855;DHT22;37895;53.240;6.572;2024-01-06T15:14:55;1.30;99.90
51855;DHT22;37895;53.240;6.572;2024-01-06T15:17:21;1.40;99.90
51855;DHT22;37895;53.240;6.572;2024-01-06T15:19:46;1.20;99.90
51855;DHT22;37895;53.240;6.572;2024-01-06T15:22:12;1.20;99.90
51855;DHT22;37895;53.240;6.572;2024-01-06T15:24:39;1.20;99.90
51855;DHT22;37895;53.240;6.572;2024-01-06T15:27:05;1.40;99.90
51855;DHT22;37895;53.240;6.572;2024-01-06T15:29:30;1.00;99.90
51855;DHT22;37895;53.240;6.572;2024-01-06T15:31:56;0.90;99.90
51855;DHT22;37895;53.240;6.572;2024-01-06T15:34:25;0.90;99.90
51855;DHT22;37895;53.240;6.572;2024-01-06T15:36:50;0.70;99.90
51855;DHT22;37895;53.240;6.572;2024-01-06T15:39:16;0.60;99.90
51855;DHT22;37895;53.240;6.572;2024-01-06T15:41:42;0.50;99.90
51855;DHT22;37895;53.240;6.572;2024-01-06T15:44:08;0.50;99.90